createdAt,value
2023-01-20T00:00:24.955Z,3.29
2023-01-20T00:02:46.526Z,3.33
2023-01-20T00:05:08.460Z,3.35
2023-01-20T00:07:30.001Z,3.37
2023-01-20T00:09:51.450Z,3.37
2023-01-20T00:12:12.968Z,3.23
2023-01-20T00:14:34.399Z,3.21
2023-01-20T00:16:57.455Z,3.23
2023-01-20T00:19:19.038Z,3.26
2023-01-20T00:21:41.095Z,3.35
2023-01-20T00:24:02.601Z,3.24
2023-01-20T00:26:24.915Z,3.16
2023-01-20T00:28:47.649Z,3.19
2023-01-20T00:31:20.612Z,3.10
2023-01-20T00:33:42.943Z,3.16
2023-01-20T00:36:04.760Z,3.17
2023-01-20T00:38:26.304Z,3.14
2023-01-20T00:40:53.931Z,3.12
2023-01-20T00:43:15.385Z,3.25
2023-01-20T00:45:36.811Z,3.24
2023-01-20T00:47:58.253Z,3.31
2023-01-20T00:50:19.725Z,3.32
2023-01-20T00:52:41.161Z,3.31
2023-01-20T00:55:03.083Z,3.31
2023-01-20T00:57:24.571Z,3.28
2023-01-20T00:59:45.991Z,3.32
2023-01-20T01:02:07.625Z,3.35
2023-01-20T01:04:29.275Z,3.32
2023-01-20T01:06:50.842Z,3.12
2023-01-20T01:09:12.294Z,3.17
2023-01-20T01:11:33.798Z,3.19
2023-01-20T01:13:56.727Z,3.04
2023-01-20T01:16:18.283Z,3.11
2023-01-20T01:18:40.778Z,3.17
2023-01-20T01:21:07.026Z,3.30
2023-01-20T01:23:28.484Z,3.19
2023-01-20T01:25:49.908Z,3.24
2023-01-20T01:28:11.510Z,3.25
2023-01-20T01:30:33.050Z,3.25
2023-01-20T01:32:54.562Z,3.23
2023-01-20T01:35:16.502Z,3.29
2023-01-20T01:37:38.296Z,3.30
2023-01-20T01:39:59.728Z,3.33
2023-01-20T01:42:25.216Z,3.36
2023-01-20T01:45:12.033Z,3.14
2023-01-20T01:47:34.818Z,3.24
2023-01-20T01:49:56.279Z,3.26
2023-01-20T01:52:18.771Z,3.22
2023-01-20T01:54:43.628Z,3.28
2023-01-20T01:57:07.627Z,3.32
2023-01-20T01:59:29.580Z,3.32
2023-01-20T02:01:53.227Z,3.20
2023-01-20T02:04:17.392Z,3.04
2023-01-20T02:06:42.713Z,3.15
2023-01-20T02:09:04.679Z,2.92
2023-01-20T02:11:26.299Z,3.03
2023-01-20T02:13:47.886Z,3.13
2023-01-20T02:16:35.473Z,3.15
2023-01-20T02:19:16.479Z,3.19
2023-01-20T02:22:05.794Z,3.25
2023-01-20T02:24:33.019Z,3.28
2023-01-20T02:26:57.182Z,3.30
2023-01-20T02:29:55.754Z,3.19
2023-01-20T02:32:28.396Z,3.14
2023-01-20T02:35:13.416Z,3.16
2023-01-20T02:37:58.711Z,3.18
2023-01-20T02:40:49.625Z,3.13
2023-01-20T02:43:29.211Z,3.13
2023-01-20T02:45:54.847Z,3.15
2023-01-20T02:48:24.374Z,3.10
2023-01-20T02:50:56.852Z,3.12
2023-01-20T02:53:19.682Z,3.12
2023-01-20T02:55:46.483Z,2.97
2023-01-20T02:58:16.390Z,3.02
2023-01-20T03:00:48.312Z,3.10
2023-01-20T03:03:18.525Z,3.12
2023-01-20T03:05:47.325Z,3.12
2023-01-20T03:08:11.495Z,3.16
2023-01-20T03:10:35.521Z,3.16
2023-01-20T03:13:03.502Z,3.06
2023-01-20T03:15:33.252Z,3.02
2023-01-20T03:17:54.747Z,3.05
2023-01-20T03:20:17.076Z,2.92
2023-01-20T03:22:38.653Z,2.79
2023-01-20T03:25:01.114Z,2.84
2023-01-20T03:27:22.587Z,2.78
2023-01-20T03:29:44.022Z,2.82
2023-01-20T03:32:08.752Z,2.81
2023-01-20T03:34:33.792Z,2.85
2023-01-20T03:36:56.727Z,2.85
2023-01-20T03:39:19.185Z,2.90
2023-01-20T03:41:58.932Z,2.94
2023-01-20T03:44:39.604Z,2.89
2023-01-20T03:47:25.819Z,2.90
2023-01-20T03:50:15.166Z,2.91
2023-01-20T03:52:47.756Z,2.90
2023-01-20T03:55:18.923Z,2.89
2023-01-20T03:57:51.248Z,2.88
2023-01-20T04:00:13.451Z,2.85
2023-01-20T04:02:37.821Z,2.85
2023-01-20T04:05:01.635Z,2.85
2023-01-20T04:07:26.419Z,2.84
2023-01-20T04:09:53.233Z,2.85
2023-01-20T04:12:14.741Z,2.72
2023-01-20T04:14:36.700Z,2.78
2023-01-20T04:16:59.234Z,2.78
2023-01-20T04:19:20.911Z,2.82
2023-01-20T04:21:48.639Z,2.82
2023-01-20T04:24:16.198Z,2.79
2023-01-20T04:26:37.680Z,2.75
2023-01-20T04:28:59.161Z,2.71
2023-01-20T04:31:30.145Z,2.71
2023-01-20T04:33:52.704Z,2.71
2023-01-20T04:36:14.249Z,2.70
2023-01-20T04:38:35.790Z,2.69
2023-01-20T04:40:57.354Z,2.65
2023-01-20T04:43:18.832Z,2.65
2023-01-20T04:45:41.889Z,2.62
2023-01-20T04:48:07.959Z,2.63
2023-01-20T04:50:29.418Z,2.51
2023-01-20T04:52:54.778Z,2.42
2023-01-20T04:55:16.489Z,2.45
2023-01-20T04:57:38.303Z,2.50
2023-01-20T04:59:59.750Z,2.45
2023-01-20T05:02:21.391Z,2.38
2023-01-20T05:04:42.967Z,2.28
2023-01-20T05:07:04.445Z,2.27
2023-01-20T05:09:25.936Z,2.06
2023-01-20T05:11:47.404Z,2.16
2023-01-20T05:14:09.048Z,2.17
2023-01-20T05:16:32.140Z,2.15
2023-01-20T05:18:54.129Z,2.11
2023-01-20T05:21:15.642Z,1.79
2023-01-20T05:23:37.221Z,1.85
2023-01-20T05:25:58.748Z,1.90
2023-01-20T05:28:20.724Z,1.84
2023-01-20T05:30:42.249Z,1.72
2023-01-20T05:33:04.058Z,1.50
2023-01-20T05:35:25.737Z,1.58
2023-01-20T05:37:47.362Z,1.58
2023-01-20T05:40:09.645Z,1.55
2023-01-20T05:42:32.331Z,1.38
2023-01-20T05:44:53.789Z,1.09
2023-01-20T05:47:15.492Z,1.13
2023-01-20T05:49:36.978Z,1.15
2023-01-20T05:51:58.512Z,1.23
2023-01-20T05:54:20.035Z,1.07
2023-01-20T05:56:41.525Z,1.06
2023-01-20T05:59:03.023Z,1.03
2023-01-20T06:01:24.560Z,1.07
2023-01-20T06:03:46.065Z,1.10
2023-01-20T06:06:09.394Z,1.02
2023-01-20T06:08:31.093Z,1.05
2023-01-20T06:10:54.423Z,0.90
2023-01-20T06:13:15.895Z,0.67
2023-01-20T06:15:37.340Z,0.76
2023-01-20T06:17:58.824Z,0.80
2023-01-20T06:20:20.306Z,0.79
2023-01-20T06:22:41.763Z,0.63
2023-01-20T06:25:04.189Z,0.43
2023-01-20T06:27:25.765Z,0.57
2023-01-20T06:29:47.768Z,0.62
2023-01-20T06:32:09.469Z,0.56
2023-01-20T06:34:31.311Z,0.39
2023-01-20T06:36:54.163Z,0.33
2023-01-20T06:39:15.742Z,0.42
2023-01-20T06:41:37.282Z,0.45
2023-01-20T06:43:58.728Z,0.27
2023-01-20T06:46:20.329Z,-0.11
2023-01-20T06:48:42.805Z,-0.05
2023-01-20T06:51:10.370Z,0.03
2023-01-20T06:53:32.420Z,0.05
2023-01-20T06:55:56.752Z,-0.09
2023-01-20T06:58:18.397Z,0.09
2023-01-20T07:00:39.868Z,0.03
2023-01-20T07:03:01.386Z,-0.08
2023-01-20T07:05:22.884Z,-0.13
2023-01-20T07:07:45.877Z,-0.02
2023-01-20T07:10:07.621Z,0.08
2023-01-20T07:12:29.102Z,-0.14
2023-01-20T07:14:50.560Z,-0.16
2023-01-20T07:17:12.983Z,-0.05
2023-01-20T07:19:34.424Z,-0.21
2023-01-20T07:21:55.939Z,-0.11
2023-01-20T07:24:17.976Z,-0.08
2023-01-20T07:26:39.468Z,-0.05
2023-01-20T07:29:00.958Z,-0.08
2023-01-20T07:31:24.350Z,-0.06
2023-01-20T07:33:45.860Z,-0.05
2023-01-20T07:36:08.943Z,-0.10
2023-01-20T07:38:30.733Z,-0.15
2023-01-20T07:40:52.327Z,-0.18
2023-01-20T07:43:13.875Z,-0.15
2023-01-20T07:45:35.334Z,-0.01
2023-01-20T07:47:58.890Z,-0.06
2023-01-20T07:50:20.309Z,-0.04
2023-01-20T07:52:42.159Z,-0.03
2023-01-20T07:55:03.766Z,-0.14
2023-01-20T07:57:25.622Z,-0.01
2023-01-20T07:59:47.702Z,0.04
2023-01-20T08:02:10.285Z,-0.04
2023-01-20T08:04:34.861Z,-0.18
2023-01-20T08:06:56.317Z,-0.16
2023-01-20T08:09:17.829Z,0.01
2023-01-20T08:11:39.343Z,-0.08
2023-01-20T08:14:00.905Z,-0.32
2023-01-20T08:16:22.458Z,-0.33
2023-01-20T08:18:44.103Z,-0.53
2023-01-20T08:21:08.236Z,-0.52
2023-01-20T08:23:29.782Z,-0.69
2023-01-20T08:25:59.882Z,-0.63
2023-01-20T08:28:21.381Z,-0.87
2023-01-20T08:30:42.914Z,-0.72
2023-01-20T08:33:04.582Z,-0.63
2023-01-20T08:35:26.481Z,-0.48
2023-01-20T08:37:47.927Z,-0.55
2023-01-20T08:40:11.387Z,-0.87
2023-01-20T08:42:33.606Z,-0.61
2023-01-20T08:44:55.130Z,-0.53
2023-01-20T08:47:17.882Z,-0.36
2023-01-20T08:49:39.379Z,-0.61
2023-01-20T08:52:00.960Z,-0.57
2023-01-20T08:54:23.067Z,-0.31
2023-01-20T08:56:44.645Z,-0.09
2023-01-20T08:59:06.636Z,0.02
2023-01-20T09:01:30.582Z,0.09
2023-01-20T09:04:04.985Z,0.20
2023-01-20T09:06:27.538Z,-0.16
2023-01-20T09:08:51.159Z,-0.18
2023-01-20T09:11:16.333Z,0.03
2023-01-20T09:13:38.351Z,0.14
2023-01-20T09:15:59.904Z,-0.30
2023-01-20T09:18:21.398Z,-0.14
2023-01-20T09:20:42.838Z,0.03
2023-01-20T09:23:04.389Z,0.15
2023-01-20T09:25:26.012Z,0.23
2023-01-20T09:27:47.550Z,0.15
2023-01-20T09:30:09.554Z,0.36
2023-01-20T09:32:31.215Z,0.50
2023-01-20T09:34:52.835Z,0.59
2023-01-20T09:37:32.686Z,0.68
2023-01-20T09:40:12.453Z,0.87
2023-01-20T09:43:12.370Z,0.93
2023-01-20T09:45:45.080Z,0.91
2023-01-20T09:48:35.221Z,0.87
2023-01-20T09:51:27.023Z,0.78
2023-01-20T09:53:59.761Z,0.65
2023-01-20T09:56:24.629Z,0.74
2023-01-20T09:59:05.452Z,0.80
2023-01-20T10:01:57.944Z,0.83
2023-01-20T10:04:29.788Z,1.03
2023-01-20T10:07:12.318Z,1.12
2023-01-20T10:09:45.583Z,1.19
2023-01-20T10:12:30.635Z,1.26
2023-01-20T10:15:07.316Z,1.35
2023-01-20T10:17:37.859Z,1.40
2023-01-20T10:20:10.029Z,1.47
2023-01-20T10:22:42.972Z,1.56
2023-01-20T10:25:13.163Z,1.65
2023-01-20T10:27:39.292Z,1.77
2023-01-20T10:30:10.699Z,1.57
2023-01-20T10:32:44.228Z,1.30
2023-01-20T10:35:08.651Z,1.35
2023-01-20T10:37:32.381Z,1.46
2023-01-20T10:40:07.363Z,1.52
2023-01-20T10:42:28.967Z,1.79
2023-01-20T10:44:52.580Z,1.93
2023-01-20T10:47:46.005Z,1.99
2023-01-20T10:50:19.643Z,2.10
2023-01-20T10:53:09.088Z,2.10
2023-01-20T10:55:33.340Z,2.15
2023-01-20T10:58:02.005Z,2.17
2023-01-20T11:00:28.577Z,2.26
2023-01-20T11:02:50.284Z,2.04
2023-01-20T11:05:21.035Z,2.06
2023-01-20T11:07:43.916Z,2.26
2023-01-20T11:10:16.577Z,2.28
2023-01-20T11:12:41.651Z,2.40
2023-01-20T11:15:16.229Z,2.30
2023-01-20T11:17:38.496Z,2.34
2023-01-20T11:20:06.708Z,2.38
2023-01-20T11:22:32.230Z,2.30
2023-01-20T11:24:56.057Z,2.43
2023-01-20T11:27:22.152Z,2.63
2023-01-20T11:29:50.176Z,2.58
2023-01-20T11:32:31.133Z,2.76
2023-01-20T11:34:54.126Z,2.65
2023-01-20T11:37:18.523Z,2.53
2023-01-20T11:40:04.190Z,2.46
2023-01-20T11:42:40.959Z,2.60
2023-01-20T11:45:20.812Z,2.54
2023-01-20T11:47:42.887Z,2.70
2023-01-20T11:50:04.488Z,2.90
2023-01-20T11:52:25.977Z,3.09
2023-01-20T11:54:48.079Z,3.28
2023-01-20T11:57:16.736Z,3.31
2023-01-20T11:59:47.653Z,3.29
2023-01-20T12:02:09.511Z,3.18
2023-01-20T12:04:58.197Z,3.13
2023-01-20T12:07:26.322Z,3.13
2023-01-20T12:09:53.857Z,3.43
2023-01-20T12:12:43.137Z,3.63
2023-01-20T12:15:15.279Z,3.63
2023-01-20T12:17:48.641Z,3.52
2023-01-20T12:20:24.098Z,3.44
2023-01-20T12:23:28.005Z,3.48
2023-01-20T12:25:58.128Z,3.26
2023-01-20T12:28:37.254Z,3.30
2023-01-20T12:31:01.292Z,3.35
2023-01-20T12:33:26.858Z,3.51
2023-01-20T12:36:12.888Z,3.34
2023-01-20T12:38:50.297Z,3.25
2023-01-20T12:41:34.832Z,3.58
2023-01-20T12:44:12.801Z,3.74
2023-01-20T12:46:42.296Z,3.91
2023-01-20T12:49:29.997Z,3.99
2023-01-20T12:52:12.590Z,3.92
2023-01-20T12:55:03.567Z,3.70
2023-01-20T12:57:47.056Z,3.53
2023-01-20T13:00:35.315Z,3.44
2023-01-20T13:03:45.026Z,3.55
2023-01-20T13:06:15.527Z,3.72
2023-01-20T13:08:42.247Z,3.68
2023-01-20T13:11:37.765Z,3.69
2023-01-20T13:14:10.112Z,3.66
2023-01-20T13:16:44.740Z,3.68
2023-01-20T13:19:14.014Z,3.76
2023-01-20T13:21:35.610Z,3.94
2023-01-20T13:24:00.511Z,3.93
2023-01-20T13:26:22.204Z,3.92
2023-01-20T13:28:51.674Z,3.79
2023-01-20T13:31:36.932Z,3.74
2023-01-20T13:34:23.135Z,3.69
2023-01-20T13:37:04.851Z,3.76
2023-01-20T13:39:40.399Z,3.68
2023-01-20T13:42:02.050Z,3.78
2023-01-20T13:44:35.483Z,3.94
2023-01-20T13:46:57.052Z,4.06
2023-01-20T13:49:28.425Z,4.17
2023-01-20T13:51:50.629Z,4.29
2023-01-20T13:54:41.751Z,4.38
2023-01-20T13:57:27.873Z,4.44
2023-01-20T13:59:50.353Z,4.45
2023-01-20T14:02:19.553Z,4.27
2023-01-20T14:04:45.154Z,4.30
2023-01-20T14:07:09.807Z,4.40
2023-01-20T14:09:31.277Z,4.61
2023-01-20T14:11:55.767Z,4.74
2023-01-20T14:14:22.496Z,4.81
2023-01-20T14:16:44.387Z,4.76
2023-01-20T14:19:32.361Z,4.70
2023-01-20T14:21:56.922Z,4.61
2023-01-20T14:24:43.446Z,4.55
2023-01-20T14:27:16.824Z,4.55
2023-01-20T14:29:38.272Z,4.44
2023-01-20T14:31:59.804Z,4.53
2023-01-20T14:34:32.711Z,4.45
2023-01-20T14:36:57.870Z,4.57
2023-01-20T14:39:25.488Z,4.72
2023-01-20T14:41:59.371Z,4.62
2023-01-20T14:44:26.274Z,4.68
2023-01-20T14:46:53.207Z,4.53
2023-01-20T14:49:17.678Z,4.50
2023-01-20T14:51:39.353Z,4.56
2023-01-20T14:54:38.493Z,4.22
2023-01-20T14:57:12.433Z,4.30
2023-01-20T14:59:34.000Z,4.34
2023-01-20T15:02:00.794Z,4.37
2023-01-20T15:04:23.170Z,4.38
2023-01-20T15:06:52.300Z,4.36
2023-01-20T15:09:33.216Z,4.34
2023-01-20T15:12:34.082Z,4.16
2023-01-20T15:15:03.539Z,4.27
2023-01-20T15:17:25.008Z,4.27
2023-01-20T15:19:46.487Z,4.24
2023-01-20T15:22:20.825Z,4.20
2023-01-20T15:24:46.706Z,4.19
2023-01-20T15:27:27.711Z,4.10
2023-01-20T15:30:14.589Z,4.11
2023-01-20T15:32:36.140Z,4.06
2023-01-20T15:34:57.578Z,4.08
2023-01-20T15:37:19.912Z,4.05
2023-01-20T15:39:41.355Z,4.05
2023-01-20T15:42:03.015Z,4.04
2023-01-20T15:44:26.108Z,4.06
2023-01-20T15:46:48.049Z,4.08
2023-01-20T15:49:14.798Z,4.06
2023-01-20T15:51:36.445Z,4.04
2023-01-20T15:53:57.905Z,4.02
2023-01-20T15:56:23.426Z,4.05
2023-01-20T15:58:45.248Z,4.03
2023-01-20T16:01:06.834Z,3.99
2023-01-20T16:03:28.657Z,4.02
2023-01-20T16:05:52.370Z,3.98
2023-01-20T16:08:29.503Z,4.03
2023-01-20T16:10:51.016Z,4.02
2023-01-20T16:13:12.598Z,3.86
2023-01-20T16:15:34.050Z,3.90
2023-01-20T16:17:55.568Z,3.91
2023-01-20T16:20:22.963Z,3.89
2023-01-20T16:22:44.407Z,3.89
2023-01-20T16:25:06.349Z,3.90
2023-01-20T16:27:27.814Z,3.82
2023-01-20T16:29:49.771Z,3.77
2023-01-20T16:32:12.112Z,3.80
2023-01-20T16:34:33.687Z,3.71
2023-01-20T16:36:55.147Z,3.65
2023-01-20T16:39:16.631Z,3.70
2023-01-20T16:41:38.199Z,3.72
2023-01-20T16:43:59.619Z,3.76
2023-01-20T16:46:26.532Z,3.76
2023-01-20T16:48:48.130Z,3.77
2023-01-20T16:51:16.483Z,3.71
2023-01-20T16:53:37.997Z,3.66
2023-01-20T16:55:59.499Z,3.62
2023-01-20T16:58:20.968Z,3.62
2023-01-20T17:00:42.793Z,3.61
2023-01-20T17:03:04.703Z,3.56
2023-01-20T17:05:27.406Z,3.60
2023-01-20T17:07:50.084Z,3.64
2023-01-20T17:10:11.793Z,3.63
2023-01-20T17:12:33.350Z,3.56
2023-01-20T17:14:54.787Z,3.42
2023-01-20T17:17:16.383Z,3.25
2023-01-20T17:19:37.906Z,3.34
2023-01-20T17:21:59.397Z,3.40
2023-01-20T17:24:20.852Z,3.41
2023-01-20T17:26:42.385Z,3.42
2023-01-20T17:29:05.432Z,3.46
2023-01-20T17:31:28.169Z,3.45
2023-01-20T17:33:50.072Z,3.39
2023-01-20T17:36:11.981Z,3.36
2023-01-20T17:38:34.973Z,3.40
2023-01-20T17:41:04.314Z,3.38
2023-01-20T17:43:25.774Z,3.38
2023-01-20T17:45:47.280Z,3.37
2023-01-20T17:48:08.750Z,3.41
2023-01-20T17:50:30.172Z,3.47
2023-01-20T17:52:51.696Z,3.46
2023-01-20T17:55:13.188Z,3.47
2023-01-20T17:57:34.709Z,3.49
2023-01-20T17:59:56.197Z,3.50
2023-01-20T18:02:18.715Z,3.51
2023-01-20T18:04:40.250Z,3.49
2023-01-20T18:07:01.733Z,3.39
2023-01-20T18:09:23.151Z,3.29
2023-01-20T18:11:44.921Z,3.31
2023-01-20T18:14:07.445Z,3.30
2023-01-20T18:16:34.861Z,3.31
2023-01-20T18:18:58.935Z,3.30
2023-01-20T18:21:22.687Z,3.30
2023-01-20T18:23:45.302Z,3.33
2023-01-20T18:26:07.999Z,3.32
2023-01-20T18:28:29.456Z,3.31
2023-01-20T18:30:51.089Z,3.35
2023-01-20T18:33:12.577Z,3.33
2023-01-20T18:35:34.052Z,3.36
2023-01-20T18:37:55.544Z,3.34
2023-01-20T18:40:17.308Z,3.34
2023-01-20T18:42:39.201Z,3.33
2023-01-20T18:45:00.631Z,3.34
2023-01-20T18:47:22.112Z,3.33
2023-01-20T18:49:43.580Z,3.24
2023-01-20T18:52:05.243Z,3.10
2023-01-20T18:54:29.938Z,3.13
2023-01-20T18:56:51.836Z,3.16
2023-01-20T18:59:13.746Z,3.15
2023-01-20T19:01:37.423Z,3.09
2023-01-20T19:03:59.923Z,3.02
2023-01-20T19:06:24.502Z,3.04
2023-01-20T19:08:48.255Z,3.08
2023-01-20T19:11:15.891Z,3.11
2023-01-20T19:13:37.350Z,3.00
2023-01-20T19:15:59.532Z,2.97
2023-01-20T19:18:21.220Z,2.96
2023-01-20T19:20:42.745Z,2.89
2023-01-20T19:23:04.202Z,2.85
2023-01-20T19:25:29.580Z,2.89
2023-01-20T19:27:51.042Z,2.89
2023-01-20T19:30:13.129Z,2.89
2023-01-20T19:32:34.580Z,2.88
2023-01-20T19:34:56.134Z,2.89
2023-01-20T19:37:17.610Z,2.91
2023-01-20T19:39:39.044Z,2.95
2023-01-20T19:42:00.558Z,2.92
2023-01-20T19:44:21.999Z,2.91
2023-01-20T19:46:43.553Z,2.90
2023-01-20T19:49:05.258Z,2.87
2023-01-20T19:51:27.214Z,2.82
2023-01-20T19:53:52.238Z,2.75
2023-01-20T19:56:16.660Z,2.49
2023-01-20T19:58:39.105Z,2.51
2023-01-20T20:01:06.397Z,2.57
2023-01-20T20:03:27.901Z,2.54
2023-01-20T20:05:49.366Z,2.51
2023-01-20T20:08:11.257Z,2.42
2023-01-20T20:10:32.684Z,2.42
2023-01-20T20:12:54.176Z,2.46
2023-01-20T20:15:15.732Z,2.43
2023-01-20T20:17:37.198Z,2.42
2023-01-20T20:19:58.628Z,2.38
2023-01-20T20:22:20.199Z,2.16
2023-01-20T20:24:41.647Z,2.14
2023-01-20T20:27:03.190Z,2.20
2023-01-20T20:29:24.615Z,2.23
2023-01-20T20:31:46.945Z,2.16
2023-01-20T20:34:11.189Z,1.99
2023-01-20T20:36:32.873Z,2.07
2023-01-20T20:38:54.410Z,1.96
2023-01-20T20:41:17.700Z,1.95
2023-01-20T20:43:39.219Z,1.99
2023-01-20T20:46:01.768Z,1.97
2023-01-20T20:48:23.208Z,1.96
2023-01-20T20:50:45.909Z,1.88
2023-01-20T20:53:08.086Z,1.98
2023-01-20T20:55:29.536Z,2.03
2023-01-20T20:57:51.391Z,2.08
2023-01-20T21:00:13.405Z,2.02
2023-01-20T21:02:35.091Z,1.98
2023-01-20T21:04:56.549Z,1.99
2023-01-20T21:07:19.361Z,1.99
2023-01-20T21:09:41.161Z,2.04
2023-01-20T21:12:02.644Z,1.89
2023-01-20T21:14:25.400Z,1.81
2023-01-20T21:16:46.844Z,1.98
2023-01-20T21:19:09.141Z,2.10
2023-01-20T21:21:30.622Z,2.03
2023-01-20T21:23:54.696Z,1.88
2023-01-20T21:26:16.414Z,1.92
2023-01-20T21:28:39.661Z,1.96
2023-01-20T21:31:05.617Z,1.97
2023-01-20T21:33:27.105Z,1.92
2023-01-20T21:35:48.829Z,1.68
2023-01-20T21:38:10.354Z,1.69
2023-01-20T21:40:36.030Z,1.68
2023-01-20T21:43:17.472Z,1.57
2023-01-20T21:45:38.924Z,1.70
2023-01-20T21:48:20.327Z,1.75
2023-01-20T21:51:00.497Z,1.79
2023-01-20T21:53:21.957Z,1.83
2023-01-20T21:55:43.375Z,1.85
2023-01-20T21:58:04.815Z,1.89
2023-01-20T22:00:26.330Z,1.94
2023-01-20T22:02:49.013Z,1.95
2023-01-20T22:05:11.558Z,1.88
2023-01-20T22:07:33.269Z,1.81
2023-01-20T22:09:57.126Z,1.66
2023-01-20T22:12:19.436Z,1.73
2023-01-20T22:14:41.346Z,1.77
2023-01-20T22:17:02.962Z,1.82
2023-01-20T22:19:24.639Z,1.83
2023-01-20T22:21:46.082Z,1.90
2023-01-20T22:24:07.821Z,1.89
2023-01-20T22:26:29.273Z,1.90
2023-01-20T22:28:50.736Z,1.93
2023-01-20T22:31:17.185Z,1.88
2023-01-20T22:33:42.040Z,1.86
2023-01-20T22:36:04.463Z,1.94
2023-01-20T22:38:26.054Z,1.93
2023-01-20T22:40:48.002Z,1.98
2023-01-20T22:43:09.491Z,1.92
2023-01-20T22:45:30.944Z,1.95
2023-01-20T22:47:52.636Z,2.01
2023-01-20T22:50:14.316Z,1.90
2023-01-20T22:52:35.869Z,1.73
2023-01-20T22:54:57.282Z,1.81
2023-01-20T22:57:18.743Z,1.87
2023-01-20T22:59:40.220Z,1.88
2023-01-20T23:02:01.708Z,1.96
2023-01-20T23:04:23.359Z,1.87
2023-01-20T23:06:44.827Z,1.85
2023-01-20T23:09:10.779Z,1.84
2023-01-20T23:11:34.187Z,1.91
2023-01-20T23:13:55.731Z,1.94
2023-01-20T23:16:22.564Z,1.86
2023-01-20T23:18:45.495Z,1.71
2023-01-20T23:21:07.465Z,1.69
2023-01-20T23:23:29.004Z,1.71
2023-01-20T23:25:50.812Z,1.65
2023-01-20T23:28:12.929Z,1.67
2023-01-20T23:30:34.440Z,1.56
2023-01-20T23:32:56.178Z,1.32
2023-01-20T23:35:17.660Z,1.30
2023-01-20T23:37:39.143Z,1.22
2023-01-20T23:40:00.593Z,1.16
2023-01-20T23:42:22.772Z,1.28
2023-01-20T23:44:44.526Z,1.35
2023-01-20T23:47:07.551Z,1.37
2023-01-20T23:49:28.987Z,1.53
2023-01-20T23:51:50.506Z,1.59
2023-01-20T23:54:13.323Z,1.70
2023-01-20T23:56:35.230Z,1.71
2023-01-20T23:58:56.683Z,1.67
